Time;durP1;ratioP1;P1;durP2;ratioP2;P2;SDS_P1;SDS_P2;PMS_P1;PMS_P2;Temp;Humidity;BMP_temperature;BMP_pressure;BME280_temperature;BME280_humidity;BME280_pressure;Samples;Min_cycle;Max_cycle;Signal;HPM_P1;HPM_P2
2023/10/10 00:04:49;;;;;;;9.27;3.83;;;;;;;;;;10138896;28;20045;-70
2023/10/10 00:09:44;;;;;;;16.55;5.45;;;;;;;;;;10137810;28;20135;-67
2023/10/10 00:14:36;;;;;;;14.07;4.30;;;;;;;;;;10135336;28;20123;-69
2023/10/10 00:19:32;;;;;;;11.57;4.43;;;;;;;;;;10130170;28;20045;-71
2023/10/10 00:24:30;;;;;;;16.13;5.50;;;;;;;;;;10139094;28;20044;-68
2023/10/10 00:29:26;;;;;;;12.20;4.00;;;;;;;;;;10130928;28;20064;-69
2023/10/10 00:34:20;;;;;;;9.52;4.18;;;;;;;;;;10138292;28;20048;-69
2023/10/10 00:44:04;;;;;;;15.25;4.90;;;;;;;;;;10146266;28;20043;-69
2023/10/10 00:49:00;;;;;;;11.02;3.72;;;;;;;;;;10127144;28;20139;-69
2023/10/10 00:54:11;;;;;;;14.50;4.72;;;;;;;;;;10128522;28;20382;-68
2023/10/10 00:59:06;;;;;;;10.30;3.83;;;;;;;;;;10114632;28;20906;-69
2023/10/10 01:03:58;;;;;;;8.85;4.82;;;;;;;;;;10113432;28;20063;-69
2023/10/10 01:09:40;;;;;;;15.50;5.00;;;;;;;;;;10110815;28;20102;-69
2023/10/10 01:14:16;;;;;;;9.43;3.65;;;;;;;;;;10140996;28;20091;-69
2023/10/10 01:19:08;;;;;;;11.48;4.55;;;;;;;;;;10143942;28;20525;-66
2023/10/10 01:24:22;;;;;;;9.30;4.28;;;;;;;;;;10111740;28;20470;-69
2023/10/10 01:34:30;;;;;;;9.32;3.97;;;;;;;;;;10141407;28;20048;-69
2023/10/10 01:39:34;;;;;;;21.95;4.60;;;;;;;;;;10143347;28;20047;-70
2023/10/10 01:44:27;;;;;;;10.35;4.32;;;;;;;;;;10111587;28;20044;-69
2023/10/10 01:49:29;;;;;;;9.77;4.28;;;;;;;;;;10142236;28;20048;-70
2023/10/10 01:54:29;;;;;;;8.77;4.55;;;;;;;;;;10132329;28;20126;-69
2023/10/10 01:59:35;;;;;;;16.17;7.03;;;;;;;;;;10142036;28;20043;-70
2023/10/10 02:04:27;;;;;;;9.98;4.40;;;;;;;;;;10120386;28;20112;-69
2023/10/10 02:09:27;;;;;;;12.55;5.78;;;;;;;;;;10115008;28;20053;-70
2023/10/10 02:14:24;;;;;;;8.35;5.53;;;;;;;;;;10110623;28;20044;-69
2023/10/10 02:19:16;;;;;;;17.38;6.25;;;;;;;;;;10142230;28;20040;-69
2023/10/10 02:34:19;;;;;;;10.80;4.80;;;;;;;;;;10140984;28;20370;-69
2023/10/10 02:39:27;;;;;;;22.42;7.50;;;;;;;;;;10143820;28;20131;-68
2023/10/10 02:44:27;;;;;;;8.10;5.07;;;;;;;;;;10140808;28;20418;-69
2023/10/10 02:49:22;;;;;;;20.30;6.28;;;;;;;;;;10140963;28;20041;-71
2023/10/10 02:54:43;;;;;;;10.35;5.53;;;;;;;;;;10106218;28;20064;-72
2023/10/10 02:59:38;;;;;;;11.10;4.85;;;;;;;;;;10139713;28;20090;-70
2023/10/10 03:15:13;;;;;;;19.40;6.80;;;;;;;;;;10107528;28;20041;-69
2023/10/10 03:25:36;;;;;;;12.65;6.55;;;;;;;;;;10105251;28;20098;-69
2023/10/10 03:30:50;;;;;;;10.80;6.18;;;;;;;;;;10122919;28;20065;-70
2023/10/10 03:35:59;;;;;;;9.88;6.13;;;;;;;;;;10123755;28;20056;-69
2023/10/10 05:24:24;;;;;;;14.50;9.15;;;;;;;;;;10142320;28;20040;-69
2023/10/10 05:29:24;;;;;;;17.20;9.07;;;;;;;;;;10144687;28;20055;-70
2023/10/10 05:34:16;;;;;;;13.93;9.38;;;;;;;;;;10143758;28;20090;-69
2023/10/10 05:39:11;;;;;;;16.20;8.93;;;;;;;;;;10144061;28;20449;-68
2023/10/10 05:44:03;;;;;;;16.23;10.90;;;;;;;;;;10141297;28;20127;-67
2023/10/10 05:48:56;;;;;;;19.13;9.88;;;;;;;;;;10143128;28;20143;-67
2023/10/10 05:53:48;;;;;;;21.85;11.52;;;;;;;;;;10144854;28;20052;-67
2023/10/10 05:58:44;;;;;;;18.40;10.63;;;;;;;;;;10145899;28;20052;-67
2023/10/10 06:03:38;;;;;;;19.20;11.77;;;;;;;;;;10145572;28;20127;-68
2023/10/10 06:08:31;;;;;;;16.30;10.90;;;;;;;;;;10136630;28;20159;-68
2023/10/10 06:13:23;;;;;;;17.33;11.15;;;;;;;;;;10124575;28;20045;-70
2023/10/10 06:18:17;;;;;;;18.42;10.90;;;;;;;;;;10135450;28;20044;-67
2023/10/10 06:23:14;;;;;;;19.13;11.43;;;;;;;;;;10138548;28;20047;-69
2023/10/10 06:28:18;;;;;;;14.55;10.18;;;;;;;;;;10138541;28;20045;-70
2023/10/10 06:33:15;;;;;;;16.70;10.85;;;;;;;;;;10135997;28;20049;-70
2023/10/10 06:38:10;;;;;;;13.73;7.05;;;;;;;;;;10142418;28;20052;-69
2023/10/10 06:43:07;;;;;;;12.77;6.35;;;;;;;;;;10143891;28;20044;-70
2023/10/10 06:48:01;;;;;;;19.73;7.55;;;;;;;;;;10136050;28;20127;-69
2023/10/10 06:52:54;;;;;;;17.40;6.32;;;;;;;;;;10143878;28;20138;-70
2023/10/10 06:57:57;;;;;;;13.73;5.53;;;;;;;;;;10144018;28;20496;-68
2023/10/10 07:02:53;;;;;;;18.50;10.50;;;;;;;;;;10143788;28;20048;-68
2023/10/10 07:08:00;;;;;;;22.90;12.13;;;;;;;;;;10144290;28;20064;-69
2023/10/10 07:12:57;;;;;;;18.42;10.85;;;;;;;;;;10143341;28;20064;-70
2023/10/10 07:18:04;;;;;;;17.98;12.00;;;;;;;;;;10144004;28;20102;-70
2023/10/10 07:22:59;;;;;;;19.60;12.07;;;;;;;;;;10143834;28;20415;-70
2023/10/10 07:27:51;;;;;;;18.75;12.35;;;;;;;;;;10143727;28;20466;-69
2023/10/10 07:32:50;;;;;;;19.02;13.23;;;;;;;;;;10143625;28;20053;-70
2023/10/10 07:37:46;;;;;;;22.30;13.05;;;;;;;;;;10143092;28;20044;-70
2023/10/10 07:42:38;;;;;;;27.33;13.30;;;;;;;;;;10142951;28;20075;-69
2023/10/10 07:47:32;;;;;;;21.88;16.70;;;;;;;;;;10144793;28;20044;-70
2023/10/10 07:52:24;;;;;;;27.85;17.40;;;;;;;;;;10151112;28;20117;-71
2023/10/10 07:57:22;;;;;;;25.52;14.73;;;;;;;;;;10150673;28;20047;-72
2023/10/10 08:07:26;;;;;;;29.17;17.85;;;;;;;;;;10150651;28;20386;-69
2023/10/10 08:12:23;;;;;;;24.48;15.25;;;;;;;;;;10150539;28;20071;-70
2023/10/10 08:17:18;;;;;;;26.33;16.92;;;;;;;;;;10150199;28;20391;-71
2023/10/10 08:22:14;;;;;;;25.55;15.38;;;;;;;;;;10150257;28;20367;-71
2023/10/10 08:27:10;;;;;;;21.17;16.25;;;;;;;;;;10150919;28;20056;-70
2023/10/10 08:32:05;;;;;;;22.70;16.30;;;;;;;;;;10149492;28;20049;-72
2023/10/10 08:37:03;;;;;;;28.35;16.77;;;;;;;;;;10149355;28;20053;-68
2023/10/10 08:41:55;;;;;;;23.75;17.30;;;;;;;;;;10155483;28;20130;-69
2023/10/10 08:46:48;;;;;;;24.05;16.60;;;;;;;;;;10171571;28;20036;-70
2023/10/10 08:51:44;;;;;;;25.05;19.08;;;;;;;;;;10189037;28;20048;-70
2023/10/10 08:56:40;;;;;;;21.15;15.30;;;;;;;;;;10189523;28;20462;-73
2023/10/10 09:01:35;;;;;;;29.92;17.95;;;;;;;;;;10187775;28;20048;-69
2023/10/10 09:07:42;;;;;;;25.90;17.63;;;;;;;;;;10189057;28;20374;-69
2023/10/10 09:11:57;;;;;;;25.90;14.68;;;;;;;;;;10179010;28;20866;-70
2023/10/10 09:16:49;;;;;;;21.40;15.48;;;;;;;;;;10188776;28;20135;-70
2023/10/10 09:21:50;;;;;;;29.08;18.63;;;;;;;;;;10188680;28;20048;-70
2023/10/10 09:26:44;;;;;;;22.58;15.23;;;;;;;;;;10187778;28;20051;-71
2023/10/10 09:31:37;;;;;;;25.42;14.98;;;;;;;;;;10187662;28;20050;-69
2023/10/10 09:36:50;;;;;;;27.25;16.58;;;;;;;;;;10169300;28;20048;-71
2023/10/10 09:57:09;;;;;;;22.33;19.13;;;;;;;;;;10172070;28;20425;-70
2023/10/10 10:02:04;;;;;;;23.17;18.42;;;;;;;;;;10169164;28;20086;-70
2023/10/10 10:07:27;;;;;;;28.27;20.10;;;;;;;;;;10186696;28;20103;-69
2023/10/10 10:12:45;;;;;;;24.35;18.50;;;;;;;;;;10186150;28;20098;-70
2023/10/10 10:17:53;;;;;;;26.47;16.67;;;;;;;;;;10186318;28;20075;-68
2023/10/10 10:22:53;;;;;;;22.20;15.40;;;;;;;;;;10186024;28;20138;-69
2023/10/10 10:27:49;;;;;;;26.70;13.93;;;;;;;;;;10186053;28;20058;-67
2023/10/10 10:32:42;;;;;;;18.92;12.23;;;;;;;;;;10168139;28;20432;-70
2023/10/10 10:37:35;;;;;;;15.93;12.27;;;;;;;;;;10185304;28;20040;-71
2023/10/10 10:42:27;;;;;;;20.70;11.20;;;;;;;;;;10185366;28;20063;-70
2023/10/10 10:47:35;;;;;;;21.05;10.15;;;;;;;;;;10185369;28;20040;-71
2023/10/10 10:52:44;;;;;;;21.52;9.75;;;;;;;;;;10184807;28;20056;-70
2023/10/10 10:57:40;;;;;;;16.33;9.97;;;;;;;;;;10184718;28;20044;-71
2023/10/10 11:02:49;;;;;;;20.98;10.50;;;;;;;;;;10168449;28;20305;-70
2023/10/10 11:07:47;;;;;;;17.45;8.75;;;;;;;;;;10168373;28;20048;-70
2023/10/10 11:12:40;;;;;;;17.10;7.53;;;;;;;;;;10184189;28;20394;-69
2023/10/10 11:17:38;;;;;;;15.50;9.05;;;;;;;;;;10184570;28;20290;-70
2023/10/10 11:22:40;;;;;;;13.23;7.50;;;;;;;;;;10183442;28;20055;-70
2023/10/10 11:27:43;;;;;;;18.27;6.40;;;;;;;;;;10155735;28;20441;-69
2023/10/10 11:32:46;;;;;;;17.70;6.35;;;;;;;;;;10143860;28;20056;-69
2023/10/10 11:37:44;;;;;;;15.95;6.20;;;;;;;;;;10143475;28;20433;-68
2023/10/10 11:42:36;;;;;;;14.52;7.20;;;;;;;;;;10143225;28;20068;-68
2023/10/10 11:47:28;;;;;;;17.63;5.60;;;;;;;;;;10143070;28;20036;-67
2023/10/10 11:52:20;;;;;;;18.98;6.93;;;;;;;;;;10143320;28;20052;-69
2023/10/10 11:57:15;;;;;;;11.43;7.85;;;;;;;;;;10143332;28;20152;-68
2023/10/10 12:02:07;;;;;;;14.60;7.78;;;;;;;;;;10154770;28;20080;-68
2023/10/10 12:07:02;;;;;;;18.83;7.78;;;;;;;;;;10167656;28;20394;-68
2023/10/10 12:12:03;;;;;;;22.17;8.45;;;;;;;;;;10182790;28;20098;-70
2023/10/10 12:16:59;;;;;;;18.02;8.65;;;;;;;;;;10183316;28;20040;-70
2023/10/10 12:21:51;;;;;;;13.65;7.80;;;;;;;;;;10163201;28;20044;-68
2023/10/10 12:26:43;;;;;;;18.65;9.20;;;;;;;;;;10143773;28;20090;-69
2023/10/10 12:31:36;;;;;;;19.17;8.35;;;;;;;;;;10142709;28;20060;-71
2023/10/10 12:36:32;;;;;;;16.08;9.25;;;;;;;;;;10149266;28;20044;-71
2023/10/10 12:41:26;;;;;;;12.35;8.07;;;;;;;;;;10150040;28;20080;-71
2023/10/10 12:46:20;;;;;;;16.38;7.75;;;;;;;;;;10149484;28;20486;-70
2023/10/10 12:51:13;;;;;;;23.88;8.82;;;;;;;;;;10149403;28;20048;-71
2023/10/10 12:56:06;;;;;;;23.25;7.05;;;;;;;;;;10149263;28;20075;-72
2023/10/10 13:00:59;;;;;;;23.83;9.32;;;;;;;;;;10149115;28;20406;-71
2023/10/10 13:05:52;;;;;;;21.13;8.52;;;;;;;;;;10149379;28;20063;-70
2023/10/10 13:10:45;;;;;;;15.75;8.32;;;;;;;;;;10148549;28;20052;-71
2023/10/10 13:16:07;;;;;;;10.52;6.38;;;;;;;;;;10148401;28;20048;-69
2023/10/10 13:21:00;;;;;;;16.05;7.28;;;;;;;;;;10148479;28;20485;-70
2023/10/10 13:25:52;;;;;;;13.95;6.40;;;;;;;;;;10147527;28;20102;-68
2023/10/10 13:30:46;;;;;;;16.15;8.10;;;;;;;;;;10148000;28;20048;-69
2023/10/10 13:35:38;;;;;;;15.93;7.18;;;;;;;;;;10148189;28;20060;-69
2023/10/10 13:40:37;;;;;;;16.77;7.05;;;;;;;;;;10147469;28;20367;-71
2023/10/10 13:45:29;;;;;;;11.52;7.28;;;;;;;;;;10145485;28;20105;-72
2023/10/10 13:50:41;;;;;;;14.85;6.28;;;;;;;;;;10145508;28;20036;-69
2023/10/10 13:55:34;;;;;;;11.35;6.13;;;;;;;;;;10146231;28;20398;-70
2023/10/10 14:00:29;;;;;;;14.70;6.63;;;;;;;;;;10145991;28;20036;-71
2023/10/10 14:05:21;;;;;;;11.63;6.60;;;;;;;;;;10145566;28;20056;-70
2023/10/10 14:10:18;;;;;;;23.60;7.18;;;;;;;;;;10144598;28;20131;-71
2023/10/10 14:15:11;;;;;;;18.02;6.43;;;;;;;;;;10145360;28;20047;-71
2023/10/10 14:20:19;;;;;;;18.25;6.72;;;;;;;;;;10143948;28;20040;-70
2023/10/10 14:25:14;;;;;;;12.85;6.57;;;;;;;;;;10141563;28;20420;-68
2023/10/10 14:30:20;;;;;;;17.17;5.22;;;;;;;;;;10143560;28;20128;-69
2023/10/10 14:35:12;;;;;;;11.02;5.60;;;;;;;;;;10145342;28;20044;-69
2023/10/10 14:40:09;;;;;;;13.15;5.38;;;;;;;;;;10145795;28;20135;-68
2023/10/10 14:45:06;;;;;;;11.63;6.22;;;;;;;;;;10144649;28;20072;-69
2023/10/10 14:50:06;;;;;;;16.02;6.05;;;;;;;;;;10145138;28;20090;-70
2023/10/10 14:55:05;;;;;;;15.82;5.43;;;;;;;;;;10144512;28;20135;-70
2023/10/10 14:59:56;;;;;;;12.82;5.28;;;;;;;;;;10143955;28;20421;-70
2023/10/10 15:04:50;;;;;;;10.73;5.82;;;;;;;;;;10143994;28;20055;-70
2023/10/10 15:09:42;;;;;;;10.88;5.13;;;;;;;;;;10144771;28;20048;-70
2023/10/10 15:14:34;;;;;;;15.52;5.38;;;;;;;;;;10144068;28;20052;-69
2023/10/10 15:19:27;;;;;;;25.27;7.38;;;;;;;;;;10143876;28;20048;-70
2023/10/10 15:24:23;;;;;;;17.55;5.85;;;;;;;;;;10143760;28;20048;-69
2023/10/10 15:29:16;;;;;;;16.75;6.93;;;;;;;;;;10144001;28;20052;-69
2023/10/10 15:34:16;;;;;;;13.18;6.25;;;;;;;;;;10143672;28;20160;-70
2023/10/10 15:39:09;;;;;;;11.38;6.22;;;;;;;;;;10144172;28;20094;-70
2023/10/10 15:44:02;;;;;;;16.38;5.40;;;;;;;;;;10143854;28;20443;-70
2023/10/10 15:48:56;;;;;;;13.10;5.93;;;;;;;;;;10142969;28;20136;-69
2023/10/10 15:53:49;;;;;;;15.40;5.60;;;;;;;;;;10143502;28;20424;-70
2023/10/10 15:58:43;;;;;;;18.42;7.45;;;;;;;;;;10143294;28;20491;-70
2023/10/10 16:03:35;;;;;;;19.60;6.45;;;;;;;;;;10142832;28;20348;-69
2023/10/10 16:08:29;;;;;;;11.93;5.75;;;;;;;;;;10145248;28;20048;-70
2023/10/10 16:13:22;;;;;;;14.40;5.40;;;;;;;;;;10150134;28;20053;-71
2023/10/10 16:18:15;;;;;;;17.38;6.22;;;;;;;;;;10150754;28;20067;-70
2023/10/10 16:23:08;;;;;;;17.58;5.22;;;;;;;;;;10150267;28;20068;-68
2023/10/10 16:28:00;;;;;;;17.27;5.68;;;;;;;;;;10149810;28;20044;-70
2023/10/10 16:32:52;;;;;;;11.40;5.82;;;;;;;;;;10150020;28;20045;-69
2023/10/10 16:37:44;;;;;;;16.65;6.00;;;;;;;;;;10149712;28;20045;-68
2023/10/10 16:42:37;;;;;;;17.00;6.78;;;;;;;;;;10148959;28;20071;-70
2023/10/10 16:47:29;;;;;;;15.18;7.45;;;;;;;;;;10147995;28;20055;-71
2023/10/10 16:52:25;;;;;;;23.20;7.63;;;;;;;;;;10147606;28;20036;-70
2023/10/10 16:57:20;;;;;;;12.07;5.95;;;;;;;;;;10148448;28;20040;-69
2023/10/10 17:02:12;;;;;;;22.77;5.95;;;;;;;;;;10148147;28;20368;-68
2023/10/10 17:07:04;;;;;;;16.13;6.10;;;;;;;;;;10147804;28;20374;-69
2023/10/10 17:12:02;;;;;;;23.95;7.75;;;;;;;;;;10148394;28;20059;-69
2023/10/10 17:16:54;;;;;;;19.20;6.90;;;;;;;;;;10147866;28;20048;-68
2023/10/10 17:21:47;;;;;;;24.98;11.35;;;;;;;;;;10146218;28;20044;-70
2023/10/10 17:26:43;;;;;;;22.65;8.43;;;;;;;;;;10147771;28;20051;-70
2023/10/10 17:31:36;;;;;;;15.52;6.22;;;;;;;;;;10146870;28;20143;-70
2023/10/10 17:36:28;;;;;;;14.57;5.72;;;;;;;;;;10146455;28;20047;-70
2023/10/10 17:41:21;;;;;;;12.43;7.45;;;;;;;;;;10145564;28;20047;-70
2023/10/10 17:46:14;;;;;;;14.07;6.32;;;;;;;;;;10146256;28;20048;-70
2023/10/10 17:51:14;;;;;;;16.17;6.15;;;;;;;;;;10154236;28;20040;-70
2023/10/10 17:56:06;;;;;;;15.18;6.80;;;;;;;;;;10160495;28;20097;-70
2023/10/10 18:00:59;;;;;;;21.95;6.93;;;;;;;;;;10169569;28;20048;-70
2023/10/10 18:05:51;;;;;;;17.85;6.97;;;;;;;;;;10183640;28;20541;-70
2023/10/10 18:10:44;;;;;;;19.55;6.15;;;;;;;;;;10157802;28;20161;-71
2023/10/10 18:15:41;;;;;;;22.20;8.65;;;;;;;;;;10145094;28;20052;-69
2023/10/10 18:20:42;;;;;;;15.48;7.20;;;;;;;;;;10144057;28;20045;-72
2023/10/10 18:25:37;;;;;;;20.00;7.25;;;;;;;;;;10145302;28;20126;-71
2023/10/10 18:30:29;;;;;;;12.23;6.90;;;;;;;;;;10144536;28;20697;-69
2023/10/10 18:35:26;;;;;;;22.95;8.93;;;;;;;;;;10143941;28;20127;-67
2023/10/10 18:40:19;;;;;;;20.88;8.63;;;;;;;;;;10145027;28;20127;-68
2023/10/10 18:45:12;;;;;;;17.48;9.02;;;;;;;;;;10145086;28;20046;-70
2023/10/10 18:50:05;;;;;;;18.48;9.07;;;;;;;;;;10145390;28;20040;-69
2023/10/10 18:54:59;;;;;;;20.38;8.13;;;;;;;;;;10122460;28;20040;-69
2023/10/10 18:59:51;;;;;;;19.35;9.80;;;;;;;;;;10148693;28;20055;-69
2023/10/10 19:04:44;;;;;;;15.55;8.13;;;;;;;;;;10159605;28;20121;-70
2023/10/10 19:09:42;;;;;;;18.88;7.90;;;;;;;;;;10169251;28;20051;-70
2023/10/10 19:14:34;;;;;;;13.57;9.07;;;;;;;;;;10137151;28;20048;-71
2023/10/10 19:19:31;;;;;;;20.83;8.68;;;;;;;;;;10144707;28;20036;-70
2023/10/10 19:24:24;;;;;;;23.23;7.63;;;;;;;;;;10142785;28;20378;-68
2023/10/10 19:29:19;;;;;;;17.70;7.65;;;;;;;;;;10133949;28;20480;-70
2023/10/10 19:34:14;;;;;;;19.73;9.07;;;;;;;;;;10143737;28;20135;-71
2023/10/10 19:39:09;;;;;;;16.65;8.38;;;;;;;;;;10143262;28;20501;-72
2023/10/10 19:44:03;;;;;;;15.63;7.80;;;;;;;;;;10145528;28;20467;-71
2023/10/10 19:48:55;;;;;;;19.88;8.15;;;;;;;;;;10151899;28;20052;-68
2023/10/10 19:53:49;;;;;;;27.13;9.25;;;;;;;;;;10150450;28;20080;-68
2023/10/10 19:58:45;;;;;;;20.88;9.57;;;;;;;;;;10132999;28;20090;-68
2023/10/10 20:03:41;;;;;;;19.05;8.57;;;;;;;;;;10149541;28;20052;-68
2023/10/10 20:08:34;;;;;;;17.13;9.10;;;;;;;;;;10151509;28;20052;-71
2023/10/10 20:13:26;;;;;;;22.35;10.02;;;;;;;;;;10149706;28;20045;-68
2023/10/10 20:18:20;;;;;;;25.55;11.10;;;;;;;;;;10146577;28;20051;-69
2023/10/10 20:23:12;;;;;;;23.58;11.38;;;;;;;;;;10146690;28;20045;-68
2023/10/10 20:28:04;;;;;;;23.65;11.40;;;;;;;;;;10147409;28;20047;-67
2023/10/10 20:32:58;;;;;;;16.63;9.93;;;;;;;;;;10150201;28;20053;-70
2023/10/10 20:37:55;;;;;;;21.23;10.02;;;;;;;;;;10149236;28;20425;-69
2023/10/10 20:42:48;;;;;;;26.17;13.45;;;;;;;;;;10142334;28;20142;-72
2023/10/10 20:47:42;;;;;;;25.13;12.32;;;;;;;;;;10149047;28;20052;-70
2023/10/10 20:52:37;;;;;;;21.83;11.65;;;;;;;;;;10147101;28;20131;-69
2023/10/10 20:57:29;;;;;;;24.30;12.10;;;;;;;;;;10154240;28;20462;-70
2023/10/10 21:02:21;;;;;;;16.95;12.40;;;;;;;;;;10150064;28;20072;-71
2023/10/10 21:07:13;;;;;;;16.08;11.15;;;;;;;;;;10146301;28;20064;-69
2023/10/10 21:12:07;;;;;;;27.33;13.40;;;;;;;;;;10134394;28;20524;-68
2023/10/10 21:16:59;;;;;;;18.02;12.00;;;;;;;;;;10131326;28;20098;-70
2023/10/10 21:21:51;;;;;;;19.67;14.45;;;;;;;;;;10146295;28;20394;-70
2023/10/10 21:26:43;;;;;;;24.98;13.70;;;;;;;;;;10147865;28;20063;-69
2023/10/10 21:31:36;;;;;;;33.60;15.38;;;;;;;;;;10148041;28;20037;-68
2023/10/10 21:36:28;;;;;;;27.55;14.57;;;;;;;;;;10146000;28;20040;-68
2023/10/10 21:41:20;;;;;;;23.92;15.55;;;;;;;;;;10146952;28;20036;-70
2023/10/10 21:46:12;;;;;;;26.63;15.38;;;;;;;;;;10142282;28;20143;-70
2023/10/10 21:51:04;;;;;;;28.13;14.73;;;;;;;;;;10147775;28;20033;-71
2023/10/10 21:55:59;;;;;;;31.10;14.90;;;;;;;;;;10146702;28;20101;-71
2023/10/10 22:00:55;;;;;;;23.80;14.60;;;;;;;;;;10145691;28;20048;-71
2023/10/10 22:05:47;;;;;;;25.92;13.80;;;;;;;;;;10145610;28;20047;-72
2023/10/10 22:10:41;;;;;;;27.27;16.00;;;;;;;;;;10145954;28;20041;-70
2023/10/10 22:15:36;;;;;;;17.20;12.55;;;;;;;;;;10144595;28;20075;-71
2023/10/10 22:20:28;;;;;;;19.20;12.77;;;;;;;;;;10145115;28;20541;-70
2023/10/10 22:25:21;;;;;;;24.00;12.48;;;;;;;;;;10176521;28;20036;-71
2023/10/10 22:30:17;;;;;;;21.52;13.02;;;;;;;;;;10185289;28;20424;-71
2023/10/10 22:35:13;;;;;;;18.13;12.90;;;;;;;;;;10185809;28;20154;-72
2023/10/10 22:40:10;;;;;;;18.23;11.05;;;;;;;;;;10166468;28;20064;-68
2023/10/10 22:45:02;;;;;;;24.02;12.82;;;;;;;;;;10165266;28;20094;-70
2023/10/10 22:49:54;;;;;;;23.25;13.38;;;;;;;;;;10160463;28;20470;-70
2023/10/10 22:54:47;;;;;;;22.73;15.05;;;;;;;;;;10183666;28;20146;-71
2023/10/10 22:59:38;;;;;;;26.70;15.65;;;;;;;;;;10184919;28;20047;-70
2023/10/10 23:04:31;;;;;;;30.70;14.90;;;;;;;;;;10184364;28;20147;-71
2023/10/10 23:09:24;;;;;;;26.13;14.95;;;;;;;;;;10185163;28;20040;-71
2023/10/10 23:14:19;;;;;;;22.73;12.63;;;;;;;;;;10184515;28;20044;-71
2023/10/10 23:19:10;;;;;;;19.83;12.40;;;;;;;;;;10183419;28;20499;-70
2023/10/10 23:24:05;;;;;;;17.20;12.90;;;;;;;;;;10161167;28;20550;-71
2023/10/10 23:28:57;;;;;;;16.17;11.38;;;;;;;;;;10144389;28;20040;-71
2023/10/10 23:33:49;;;;;;;20.30;13.35;;;;;;;;;;10144067;28;20127;-71
2023/10/10 23:38:44;;;;;;;21.98;15.18;;;;;;;;;;10144300;28;20321;-70
2023/10/10 23:43:36;;;;;;;26.95;15.25;;;;;;;;;;10144343;28;20098;-71
2023/10/10 23:48:29;;;;;;;31.08;18.25;;;;;;;;;;10143786;28;20044;-72
2023/10/10 23:53:22;;;;;;;24.40;17.75;;;;;;;;;;10123855;28;20056;-71
2023/10/10 23:58:14;;;;;;;31.08;16.40;;;;;;;;;;10139237;28;20421;-71
